sensor_id;sensor_type;location;lat;lon;timestamp;pressure;altitude;pressure_sealevel;temperature;humidity
79366;BME280;68833;53.160;17.920;2024-01-11T00:46:09;101733.77;;;-0.03;70.46
79366;BME280;68833;53.160;17.920;2024-01-11T00:48:35;101736.77;;;-0.46;71.47
79366;BME280;68833;53.160;17.920;2024-01-11T00:51:04;101736.59;;;-0.69;71.90
79366;BME280;68833;53.160;17.920;2024-01-11T00:53:30;101737.27;;;-0.89;72.54
79366;BME280;68833;53.160;17.920;2024-01-11T00:55:57;101748.23;;;-1.09;72.73
79366;BME280;68833;53.160;17.920;2024-01-11T00:58:24;101761.98;;;-1.28;73.25
79366;BME280;68833;53.160;17.920;2024-01-11T01:00:51;101751.35;;;-1.49;73.42
79366;BME280;68833;53.160;17.920;2024-01-11T01:03:22;101750.56;;;-1.66;74.36
79366;BME280;68833;53.160;17.920;2024-01-11T01:05:51;101753.55;;;-1.82;74.55
79366;BME280;68833;53.160;17.920;2024-01-11T01:08:22;101758.45;;;-1.96;75.06
79366;BME280;68833;53.160;17.920;2024-01-11T01:10:49;101766.30;;;-2.09;74.92
79366;BME280;68833;53.160;17.920;2024-01-11T01:13:15;101760.77;;;-2.18;75.09
79366;BME280;68833;53.160;17.920;2024-01-11T01:15:42;101760.58;;;-2.27;75.86
79366;BME280;68833;53.160;17.920;2024-01-11T01:18:13;101754.57;;;-2.35;75.88
79366;BME280;68833;53.160;17.920;2024-01-11T01:20:39;101750.70;;;-2.42;76.21
79366;BME280;68833;53.160;17.920;2024-01-11T01:23:08;101746.73;;;-2.48;76.72
79366;BME280;68833;53.160;17.920;2024-01-11T01:25:35;101741.63;;;-2.50;76.85
79366;BME280;68833;53.160;17.920;2024-01-11T01:28:01;101754.15;;;-2.50;77.00
79366;BME280;68833;53.160;17.920;2024-01-11T01:30:27;101757.14;;;-2.49;77.33
79366;BME280;68833;53.160;17.920;2024-01-11T01:32:54;101750.31;;;-2.51;77.26
79366;BME280;68833;53.160;17.920;2024-01-11T01:35:23;101747.61;;;-2.53;77.50
79366;BME280;68833;53.160;17.920;2024-01-11T01:37:50;101747.58;;;-2.54;77.73
79366;BME280;68833;53.160;17.920;2024-01-11T01:40:17;101754.54;;;-2.56;77.82
79366;BME280;68833;53.160;17.920;2024-01-11T01:42:44;101762.04;;;-2.57;77.57
79366;BME280;68833;53.160;17.920;2024-01-11T01:45:15;101760.91;;;-2.58;78.24
79366;BME280;68833;53.160;17.920;2024-01-11T01:47:42;101768.17;;;-2.58;78.50
79366;BME280;68833;53.160;17.920;2024-01-11T01:50:10;101763.31;;;-2.56;78.18
79366;BME280;68833;53.160;17.920;2024-01-11T01:52:40;101772.22;;;-2.53;78.67
79366;BME280;68833;53.160;17.920;2024-01-11T01:55:09;101775.23;;;-2.51;78.54
79366;BME280;68833;53.160;17.920;2024-01-11T01:57:41;101784.52;;;-2.49;78.90
79366;BME280;68833;53.160;17.920;2024-01-11T02:00:10;101786.96;;;-2.46;78.95
79366;BME280;68833;53.160;17.920;2024-01-11T02:11:23;101776.55;;;-2.47;79.85
79366;BME280;68833;53.160;17.920;2024-01-11T02:13:50;101772.02;;;-2.48;79.65
79366;BME280;68833;53.160;17.920;2024-01-11T02:16:16;101780.45;;;-2.48;79.80
79366;BME280;68833;53.160;17.920;2024-01-11T02:18:43;101780.23;;;-2.46;79.93
79366;BME280;68833;53.160;17.920;2024-01-11T02:21:14;101775.81;;;-2.42;80.20
79366;BME280;68833;53.160;17.920;2024-01-11T02:24:06;101777.66;;;-2.37;80.35
79366;BME280;68833;53.160;17.920;2024-01-11T02:26:33;101775.73;;;-2.32;80.48
79366;BME280;68833;53.160;17.920;2024-01-11T02:29:03;101767.20;;;-2.28;80.46
79366;BME280;68833;53.160;17.920;2024-01-11T02:31:29;101762.54;;;-2.26;80.35
79366;BME280;68833;53.160;17.920;2024-01-11T02:33:56;101753.28;;;-2.23;80.51
79366;BME280;68833;53.160;17.920;2024-01-11T02:36:23;101743.21;;;-2.21;80.69
79366;BME280;68833;53.160;17.920;2024-01-11T02:38:53;101735.61;;;-2.18;80.73
79366;BME280;68833;53.160;17.920;2024-01-11T02:41:20;101735.44;;;-2.15;80.93
79366;BME280;68833;53.160;17.920;2024-01-11T02:43:48;101738.09;;;-2.11;80.79
79366;BME280;68833;53.160;17.920;2024-01-11T02:46:26;101738.66;;;-2.07;80.78
79366;BME280;68833;53.160;17.920;2024-01-11T02:48:57;101742.52;;;-2.03;80.97
79366;BME280;68833;53.160;17.920;2024-01-11T02:51:24;101734.47;;;-2.00;80.97
79366;BME280;68833;53.160;17.920;2024-01-11T02:53:52;101730.63;;;-1.97;81.36
79366;BME280;68833;53.160;17.920;2024-01-11T02:56:19;101725.08;;;-1.96;81.06
79366;BME280;68833;53.160;17.920;2024-01-11T02:58:48;101718.70;;;-1.95;81.24
79366;BME280;68833;53.160;17.920;2024-01-11T03:01:15;101714.12;;;-1.95;81.43
79366;BME280;68833;53.160;17.920;2024-01-11T03:03:41;101709.08;;;-1.92;81.64
79366;BME280;68833;53.160;17.920;2024-01-11T03:06:08;101702.48;;;-1.90;81.47
79366;BME280;68833;53.160;17.920;2024-01-11T03:08:35;101707.20;;;-1.86;81.41
79366;BME280;68833;53.160;17.920;2024-01-11T03:11:01;101705.70;;;-1.82;81.57
79366;BME280;68833;53.160;17.920;2024-01-11T03:13:31;101706.00;;;-1.80;81.63
79366;BME280;68833;53.160;17.920;2024-01-11T03:16:00;101698.98;;;-1.79;81.85
79366;BME280;68833;53.160;17.920;2024-01-11T03:18:29;101685.77;;;-1.78;81.58
79366;BME280;68833;53.160;17.920;2024-01-11T03:21:17;101677.59;;;-1.77;81.83
79366;BME280;68833;53.160;17.920;2024-01-11T03:23:51;101661.35;;;-1.74;81.76
79366;BME280;68833;53.160;17.920;2024-01-11T03:26:18;101644.95;;;-1.72;81.90
79366;BME280;68833;53.160;17.920;2024-01-11T03:28:45;101654.35;;;-1.71;81.82
79366;BME280;68833;53.160;17.920;2024-01-11T03:31:12;101652.75;;;-1.69;82.32
79366;BME280;68833;53.160;17.920;2024-01-11T03:33:39;101662.73;;;-1.68;82.42
79366;BME280;68833;53.160;17.920;2024-01-11T03:36:09;101661.93;;;-1.67;82.26
79366;BME280;68833;53.160;17.920;2024-01-11T03:38:38;101660.72;;;-1.67;82.28
79366;BME280;68833;53.160;17.920;2024-01-11T03:41:08;101658.02;;;-1.66;82.20
79366;BME280;68833;53.160;17.920;2024-01-11T03:43:39;101664.54;;;-1.67;82.46
79366;BME280;68833;53.160;17.920;2024-01-11T03:46:08;101668.50;;;-1.64;82.45
79366;BME280;68833;53.160;17.920;2024-01-11T03:48:35;101659.33;;;-1.62;82.10
79366;BME280;68833;53.160;17.920;2024-01-11T03:51:04;101658.98;;;-1.59;82.07
79366;BME280;68833;53.160;17.920;2024-01-11T03:53:34;101648.25;;;-1.57;82.62
79366;BME280;68833;53.160;17.920;2024-01-11T03:56:02;101638.70;;;-1.55;82.56
79366;BME280;68833;53.160;17.920;2024-01-11T03:58:29;101629.29;;;-1.54;82.80
79366;BME280;68833;53.160;17.920;2024-01-11T04:00:58;101630.23;;;-1.52;82.74
79366;BME280;68833;53.160;17.920;2024-01-11T04:03:25;101629.08;;;-1.51;82.44
79366;BME280;68833;53.160;17.920;2024-01-11T04:05:52;101625.23;;;-1.49;82.81
79366;BME280;68833;53.160;17.920;2024-01-11T04:08:21;101612.39;;;-1.47;82.07
79366;BME280;68833;53.160;17.920;2024-01-11T04:10:51;101597.58;;;-1.44;82.55
79366;BME280;68833;53.160;17.920;2024-01-11T04:13:17;101585.48;;;-1.42;82.38
79366;BME280;68833;53.160;17.920;2024-01-11T04:15:45;101579.98;;;-1.41;82.79
79366;BME280;68833;53.160;17.920;2024-01-11T04:18:14;101568.65;;;-1.41;82.81
79366;BME280;68833;53.160;17.920;2024-01-11T04:20:40;101573.10;;;-1.41;82.84
79366;BME280;68833;53.160;17.920;2024-01-11T04:23:07;101577.89;;;-1.42;82.90
79366;BME280;68833;53.160;17.920;2024-01-11T04:25:33;101585.16;;;-1.41;83.03
79366;BME280;68833;53.160;17.920;2024-01-11T04:28:02;101585.27;;;-1.39;83.07
79366;BME280;68833;53.160;17.920;2024-01-11T04:30:30;101577.34;;;-1.36;82.80
79366;BME280;68833;53.160;17.920;2024-01-11T04:32:57;101581.98;;;-1.33;82.76
79366;BME280;68833;53.160;17.920;2024-01-11T04:35:32;101563.30;;;-1.31;82.58
79366;BME280;68833;53.160;17.920;2024-01-11T04:37:58;101556.41;;;-1.31;83.11
79366;BME280;68833;53.160;17.920;2024-01-11T04:40:24;101559.91;;;-1.30;83.42
79366;BME280;68833;53.160;17.920;2024-01-11T04:42:51;101566.87;;;-1.29;82.93
79366;BME280;68833;53.160;17.920;2024-01-11T04:45:17;101572.52;;;-1.29;83.08
79366;BME280;68833;53.160;17.920;2024-01-11T04:47:44;101573.89;;;-1.30;82.99
79366;BME280;68833;53.160;17.920;2024-01-11T04:50:10;101579.68;;;-1.28;82.82
79366;BME280;68833;53.160;17.920;2024-01-11T04:52:37;101573.15;;;-1.24;82.87
79366;BME280;68833;53.160;17.920;2024-01-11T04:55:03;101567.65;;;-1.21;83.07
79366;BME280;68833;53.160;17.920;2024-01-11T04:57:30;101559.61;;;-1.20;83.50
79366;BME280;68833;53.160;17.920;2024-01-11T04:59:56;101547.65;;;-1.17;83.39
79366;BME280;68833;53.160;17.920;2024-01-11T05:02:23;101557.84;;;-1.17;83.07
79366;BME280;68833;53.160;17.920;2024-01-11T05:04:49;101564.16;;;-1.14;83.18
79366;BME280;68833;53.160;17.920;2024-01-11T05:07:19;101572.30;;;-1.14;83.33
79366;BME280;68833;53.160;17.920;2024-01-11T05:09:45;101565.52;;;-1.11;82.89
79366;BME280;68833;53.160;17.920;2024-01-11T05:12:11;101566.22;;;-1.08;83.01
79366;BME280;68833;53.160;17.920;2024-01-11T05:14:38;101563.57;;;-1.06;83.59
79366;BME280;68833;53.160;17.920;2024-01-11T05:17:04;101554.09;;;-1.03;83.33
79366;BME280;68833;53.160;17.920;2024-01-11T05:19:30;101547.86;;;-1.00;83.32
79366;BME280;68833;53.160;17.920;2024-01-11T05:21:57;101546.57;;;-0.98;83.45
79366;BME280;68833;53.160;17.920;2024-01-11T05:24:24;101548.10;;;-0.98;83.38
79366;BME280;68833;53.160;17.920;2024-01-11T05:26:51;101543.08;;;-0.99;83.22
79366;BME280;68833;53.160;17.920;2024-01-11T05:29:17;101545.71;;;-0.94;83.24
79366;BME280;68833;53.160;17.920;2024-01-11T05:31:43;101550.34;;;-0.92;83.45
79366;BME280;68833;53.160;17.920;2024-01-11T05:34:10;101545.14;;;-0.89;83.58
79366;BME280;68833;53.160;17.920;2024-01-11T05:36:38;101550.73;;;-0.88;83.35
79366;BME280;68833;53.160;17.920;2024-01-11T05:39:05;101548.43;;;-0.86;83.75
79366;BME280;68833;53.160;17.920;2024-01-11T05:41:32;101548.95;;;-0.86;83.51
79366;BME280;68833;53.160;17.920;2024-01-11T05:43:58;101555.02;;;-0.85;83.44
79366;BME280;68833;53.160;17.920;2024-01-11T05:46:24;101547.94;;;-0.85;83.53
79366;BME280;68833;53.160;17.920;2024-01-11T05:48:51;101553.16;;;-0.84;83.39
79366;BME280;68833;53.160;17.920;2024-01-11T05:51:17;101556.35;;;-0.82;82.80
79366;BME280;68833;53.160;17.920;2024-01-11T05:53:46;101548.20;;;-0.79;83.94
79366;BME280;68833;53.160;17.920;2024-01-11T05:56:18;101540.21;;;-0.77;83.42
79366;BME280;68833;53.160;17.920;2024-01-11T05:58:45;101536.20;;;-0.75;83.52
79366;BME280;68833;53.160;17.920;2024-01-11T06:01:11;101533.48;;;-0.74;83.45
79366;BME280;68833;53.160;17.920;2024-01-11T06:03:40;101529.65;;;-0.75;83.39
79366;BME280;68833;53.160;17.920;2024-01-11T06:06:06;101524.44;;;-0.75;83.63
79366;BME280;68833;53.160;17.920;2024-01-11T06:08:33;101529.38;;;-0.73;83.40
79366;BME280;68833;53.160;17.920;2024-01-11T06:10:59;101527.89;;;-0.72;83.43
79366;BME280;68833;53.160;17.920;2024-01-11T06:13:25;101533.08;;;-0.69;83.38
79366;BME280;68833;53.160;17.920;2024-01-11T06:15:52;101529.02;;;-0.66;83.35
79366;BME280;68833;53.160;17.920;2024-01-11T06:18:18;101522.52;;;-0.65;83.49
79366;BME280;68833;53.160;17.920;2024-01-11T06:20:45;101520.61;;;-0.66;83.82
79366;BME280;68833;53.160;17.920;2024-01-11T06:23:11;101517.77;;;-0.67;83.66
79366;BME280;68833;53.160;17.920;2024-01-11T06:25:37;101517.05;;;-0.68;83.47
79366;BME280;68833;53.160;17.920;2024-01-11T06:28:07;101514.16;;;-0.67;83.03
79366;BME280;68833;53.160;17.920;2024-01-11T06:30:35;101514.39;;;-0.66;83.42
79366;BME280;68833;53.160;17.920;2024-01-11T06:33:02;101512.04;;;-0.65;83.71
79366;BME280;68833;53.160;17.920;2024-01-11T06:35:29;101522.05;;;-0.64;83.86
79366;BME280;68833;53.160;17.920;2024-01-11T06:37:55;101524.73;;;-0.63;83.93
79366;BME280;68833;53.160;17.920;2024-01-11T06:40:22;101520.19;;;-0.61;83.58
79366;BME280;68833;53.160;17.920;2024-01-11T06:42:48;101517.08;;;-0.60;83.89
79366;BME280;68833;53.160;17.920;2024-01-11T06:45:14;101515.84;;;-0.61;83.22
79366;BME280;68833;53.160;17.920;2024-01-11T06:47:41;101509.50;;;-0.60;83.70
79366;BME280;68833;53.160;17.920;2024-01-11T06:50:15;101502.55;;;-0.58;83.74
79366;BME280;68833;53.160;17.920;2024-01-11T06:52:41;101505.25;;;-0.55;83.88
79366;BME280;68833;53.160;17.920;2024-01-11T06:55:11;101497.50;;;-0.55;83.79
79366;BME280;68833;53.160;17.920;2024-01-11T06:57:37;101496.33;;;-0.54;84.09
79366;BME280;68833;53.160;17.920;2024-01-11T07:00:04;101504.67;;;-0.53;83.75
79366;BME280;68833;53.160;17.920;2024-01-11T07:02:31;101507.80;;;-0.53;83.85
79366;BME280;68833;53.160;17.920;2024-01-11T07:04:57;101506.94;;;-0.53;83.57
79366;BME280;68833;53.160;17.920;2024-01-11T07:07:24;101504.94;;;-0.52;84.06
79366;BME280;68833;53.160;17.920;2024-01-11T07:09:54;101506.54;;;-0.50;83.75
79366;BME280;68833;53.160;17.920;2024-01-11T07:12:21;101508.08;;;-0.47;84.01
79366;BME280;68833;53.160;17.920;2024-01-11T07:14:48;101509.77;;;-0.44;83.53
79366;BME280;68833;53.160;17.920;2024-01-11T07:17:17;101517.78;;;-0.43;83.71
79366;BME280;68833;53.160;17.920;2024-01-11T07:19:43;101511.81;;;-0.41;83.70
79366;BME280;68833;53.160;17.920;2024-01-11T07:22:10;101505.42;;;-0.41;83.83
79366;BME280;68833;53.160;17.920;2024-01-11T07:24:37;101502.80;;;-0.41;84.09
79366;BME280;68833;53.160;17.920;2024-01-11T07:27:07;101510.64;;;-0.40;83.96
79366;BME280;68833;53.160;17.920;2024-01-11T07:29:34;101506.92;;;-0.39;83.73
79366;BME280;68833;53.160;17.920;2024-01-11T07:32:01;101498.41;;;-0.36;83.93
79366;BME280;68833;53.160;17.920;2024-01-11T07:34:28;101493.86;;;-0.34;83.62
79366;BME280;68833;53.160;17.920;2024-01-11T07:36:54;101491.93;;;-0.31;83.93
79366;BME280;68833;53.160;17.920;2024-01-11T07:39:21;101485.48;;;-0.29;83.95
79366;BME280;68833;53.160;17.920;2024-01-11T07:41:48;101483.46;;;-0.28;83.93
79366;BME280;68833;53.160;17.920;2024-01-11T07:44:15;101478.88;;;-0.30;84.14
79366;BME280;68833;53.160;17.920;2024-01-11T07:46:42;101485.16;;;-0.28;83.74
79366;BME280;68833;53.160;17.920;2024-01-11T07:49:11;101486.31;;;-0.26;83.98
79366;BME280;68833;53.160;17.920;2024-01-11T07:51:38;101488.17;;;-0.23;84.03
79366;BME280;68833;53.160;17.920;2024-01-11T07:54:08;101489.64;;;-0.22;84.49
79366;BME280;68833;53.160;17.920;2024-01-11T07:56:36;101486.23;;;-0.20;84.29
79366;BME280;68833;53.160;17.920;2024-01-11T07:59:02;101487.34;;;-0.19;84.14
79366;BME280;68833;53.160;17.920;2024-01-11T08:01:29;101491.02;;;-0.18;84.14
79366;BME280;68833;53.160;17.920;2024-01-11T08:03:55;101494.69;;;-0.17;84.30
79366;BME280;68833;53.160;17.920;2024-01-11T08:06:22;101494.08;;;-0.15;84.46
79366;BME280;68833;53.160;17.920;2024-01-11T08:08:51;101493.70;;;-0.12;84.24
79366;BME280;68833;53.160;17.920;2024-01-11T08:11:17;101493.99;;;-0.09;83.97
79366;BME280;68833;53.160;17.920;2024-01-11T08:13:45;101499.95;;;-0.08;84.08
79366;BME280;68833;53.160;17.920;2024-01-11T08:16:17;101505.91;;;-0.05;84.25
79366;BME280;68833;53.160;17.920;2024-01-11T08:18:44;101502.69;;;-0.04;84.17
79366;BME280;68833;53.160;17.920;2024-01-11T08:21:13;101501.75;;;-0.06;84.26
79366;BME280;68833;53.160;17.920;2024-01-11T08:23:42;101510.70;;;-0.03;84.65
79366;BME280;68833;53.160;17.920;2024-01-11T08:26:14;101507.32;;;-0.01;84.32
79366;BME280;68833;53.160;17.920;2024-01-11T08:28:44;101513.44;;;0.00;84.50
79366;BME280;68833;53.160;17.920;2024-01-11T08:31:11;101513.52;;;0.02;84.63
79366;BME280;68833;53.160;17.920;2024-01-11T08:33:40;101504.80;;;0.04;84.14
79366;BME280;68833;53.160;17.920;2024-01-11T08:36:07;101493.42;;;0.04;84.30
79366;BME280;68833;53.160;17.920;2024-01-11T08:38:33;101501.71;;;0.04;84.73
79366;BME280;68833;53.160;17.920;2024-01-11T08:40:59;101502.57;;;0.04;84.87
79366;BME280;68833;53.160;17.920;2024-01-11T08:43:28;101500.18;;;0.05;84.54
79366;BME280;68833;53.160;17.920;2024-01-11T08:45:58;101508.77;;;0.08;84.25
79366;BME280;68833;53.160;17.920;2024-01-11T08:48:25;101511.98;;;0.10;84.55
79366;BME280;68833;53.160;17.920;2024-01-11T08:50:52;101500.66;;;0.11;84.18
79366;BME280;68833;53.160;17.920;2024-01-11T08:53:18;101504.52;;;0.12;84.20
79366;BME280;68833;53.160;17.920;2024-01-11T08:55:48;101508.70;;;0.13;84.29
79366;BME280;68833;53.160;17.920;2024-01-11T08:58:14;101513.34;;;0.13;84.94
79366;BME280;68833;53.160;17.920;2024-01-11T09:00:40;101511.52;;;0.14;84.32
79366;BME280;68833;53.160;17.920;2024-01-11T09:03:06;101519.38;;;0.16;84.54
79366;BME280;68833;53.160;17.920;2024-01-11T09:05:34;101525.66;;;0.19;84.47
79366;BME280;68833;53.160;17.920;2024-01-11T09:08:01;101534.11;;;0.22;84.52
79366;BME280;68833;53.160;17.920;2024-01-11T09:10:30;101537.28;;;0.23;84.72
79366;BME280;68833;53.160;17.920;2024-01-11T09:12:56;101538.20;;;0.24;84.47
79366;BME280;68833;53.160;17.920;2024-01-11T09:15:22;101539.11;;;0.25;84.33
79366;BME280;68833;53.160;17.920;2024-01-11T09:17:49;101536.82;;;0.24;84.72
79366;BME280;68833;53.160;17.920;2024-01-11T09:20:19;101530.30;;;0.25;84.97
79366;BME280;68833;53.160;17.920;2024-01-11T09:22:46;101528.34;;;0.27;84.72
79366;BME280;68833;53.160;17.920;2024-01-11T09:25:12;101527.93;;;0.29;84.68
79366;BME280;68833;53.160;17.920;2024-01-11T09:27:41;101528.34;;;0.31;84.64
79366;BME280;68833;53.160;17.920;2024-01-11T09:30:07;101523.13;;;0.30;84.42
79366;BME280;68833;53.160;17.920;2024-01-11T09:32:34;101528.70;;;0.31;84.79
79366;BME280;68833;53.160;17.920;2024-01-11T09:35:03;101522.73;;;0.33;84.70
79366;BME280;68833;53.160;17.920;2024-01-11T09:37:30;101523.57;;;0.32;84.43
79366;BME280;68833;53.160;17.920;2024-01-11T09:39:57;101531.44;;;0.35;84.98
79366;BME280;68833;53.160;17.920;2024-01-11T09:42:26;101524.46;;;0.37;84.54
79366;BME280;68833;53.160;17.920;2024-01-11T09:44:56;101520.77;;;0.39;84.63
79366;BME280;68833;53.160;17.920;2024-01-11T09:47:24;101523.63;;;0.41;84.65
79366;BME280;68833;53.160;17.920;2024-01-11T09:49:51;101522.66;;;0.43;84.77
79366;BME280;68833;53.160;17.920;2024-01-11T09:52:20;101521.52;;;0.44;84.85
79366;BME280;68833;53.160;17.920;2024-01-11T09:54:48;101521.51;;;0.44;84.59
79366;BME280;68833;53.160;17.920;2024-01-11T09:57:16;101522.10;;;0.42;84.72
79366;BME280;68833;53.160;17.920;2024-01-11T09:59:45;101521.17;;;0.41;84.79
79366;BME280;68833;53.160;17.920;2024-01-11T10:02:12;101526.59;;;0.42;84.78
79366;BME280;68833;53.160;17.920;2024-01-11T10:04:41;101523.02;;;0.43;84.84
79366;BME280;68833;53.160;17.920;2024-01-11T10:07:09;101519.49;;;0.46;84.80
79366;BME280;68833;53.160;17.920;2024-01-11T10:09:35;101513.88;;;0.47;84.98
79366;BME280;68833;53.160;17.920;2024-01-11T10:12:02;101517.57;;;0.49;84.94
79366;BME280;68833;53.160;17.920;2024-01-11T10:14:30;101522.84;;;0.50;84.79
79366;BME280;68833;53.160;17.920;2024-01-11T10:16:57;101521.52;;;0.52;84.84
79366;BME280;68833;53.160;17.920;2024-01-11T10:19:24;101517.80;;;0.54;84.83
79366;BME280;68833;53.160;17.920;2024-01-11T10:21:50;101516.25;;;0.58;84.73
79366;BME280;68833;53.160;17.920;2024-01-11T10:24:20;101517.09;;;0.61;84.89
79366;BME280;68833;53.160;17.920;2024-01-11T10:26:48;101521.69;;;0.63;84.86
79366;BME280;68833;53.160;17.920;2024-01-11T10:29:14;101520.12;;;0.63;84.92
79366;BME280;68833;53.160;17.920;2024-01-11T10:31:41;101518.74;;;0.63;84.95
79366;BME280;68833;53.160;17.920;2024-01-11T10:34:07;101516.67;;;0.63;84.69
79366;BME280;68833;53.160;17.920;2024-01-11T10:36:34;101512.58;;;0.65;84.87
79366;BME280;68833;53.160;17.920;2024-01-11T10:39:02;101505.91;;;0.66;84.84
79366;BME280;68833;53.160;17.920;2024-01-11T10:41:38;101506.33;;;0.68;84.38
79366;BME280;68833;53.160;17.920;2024-01-11T10:44:11;101503.46;;;0.70;84.55
79366;BME280;68833;53.160;17.920;2024-01-11T10:46:40;101504.56;;;0.71;84.71
79366;BME280;68833;53.160;17.920;2024-01-11T10:49:08;101505.44;;;0.71;84.63
79366;BME280;68833;53.160;17.920;2024-01-11T10:51:35;101500.38;;;0.70;84.58
79366;BME280;68833;53.160;17.920;2024-01-11T10:54:02;101501.17;;;0.69;84.25
79366;BME280;68833;53.160;17.920;2024-01-11T10:56:28;101501.05;;;0.70;84.61
79366;BME280;68833;53.160;17.920;2024-01-11T10:58:56;101506.46;;;0.71;84.43
79366;BME280;68833;53.160;17.920;2024-01-11T11:04:22;101507.20;;;0.80;84.76
79366;BME280;68833;53.160;17.920;2024-01-11T11:06:56;101506.11;;;0.79;84.50
79366;BME280;68833;53.160;17.920;2024-01-11T11:09:26;101502.64;;;0.78;84.72
79366;BME280;68833;53.160;17.920;2024-01-11T11:11:56;101498.27;;;0.77;84.41
79366;BME280;68833;53.160;17.920;2024-01-11T11:14:24;101491.15;;;0.77;84.79
79366;BME280;68833;53.160;17.920;2024-01-11T11:16:52;101483.95;;;0.78;84.67
79366;BME280;68833;53.160;17.920;2024-01-11T11:19:22;101481.96;;;0.80;84.46
79366;BME280;68833;53.160;17.920;2024-01-11T11:21:49;101480.15;;;0.82;84.64
79366;BME280;68833;53.160;17.920;2024-01-11T11:24:17;101480.70;;;0.83;84.65
79366;BME280;68833;53.160;17.920;2024-01-11T11:26:45;101478.65;;;0.83;84.60
79366;BME280;68833;53.160;17.920;2024-01-11T11:29:15;101475.34;;;0.83;84.61
79366;BME280;68833;53.160;17.920;2024-01-11T11:31:44;101477.19;;;0.82;84.64
79366;BME280;68833;53.160;17.920;2024-01-11T11:34:13;101474.42;;;0.82;84.41
79366;BME280;68833;53.160;17.920;2024-01-11T11:36:41;101476.55;;;0.83;84.41
79366;BME280;68833;53.160;17.920;2024-01-11T11:39:11;101478.36;;;0.85;84.60
79366;BME280;68833;53.160;17.920;2024-01-11T11:41:43;101473.05;;;0.86;84.54
79366;BME280;68833;53.160;17.920;2024-01-11T11:44:12;101471.27;;;0.85;84.67
79366;BME280;68833;53.160;17.920;2024-01-11T11:46:45;101467.81;;;0.85;84.41
79366;BME280;68833;53.160;17.920;2024-01-11T11:49:13;101467.31;;;0.85;84.49
79366;BME280;68833;53.160;17.920;2024-01-11T11:51:43;101468.65;;;0.84;84.50
79366;BME280;68833;53.160;17.920;2024-01-11T11:54:10;101472.88;;;0.86;84.72
79366;BME280;68833;53.160;17.920;2024-01-11T11:56:38;101464.80;;;0.88;84.30
79366;BME280;68833;53.160;17.920;2024-01-11T11:59:06;101466.45;;;0.90;84.41
79366;BME280;68833;53.160;17.920;2024-01-11T12:01:37;101463.02;;;0.90;84.21
79366;BME280;68833;53.160;17.920;2024-01-11T12:04:07;101457.95;;;0.89;84.37
79366;BME280;68833;53.160;17.920;2024-01-11T12:06:34;101457.38;;;0.88;84.62
79366;BME280;68833;53.160;17.920;2024-01-11T12:09:03;101457.89;;;0.88;84.62
79366;BME280;68833;53.160;17.920;2024-01-11T12:11:30;101451.75;;;0.86;84.42
79366;BME280;68833;53.160;17.920;2024-01-11T12:14:02;101447.27;;;0.86;84.39
79366;BME280;68833;53.160;17.920;2024-01-11T12:16:29;101441.99;;;0.88;84.69
79366;BME280;68833;53.160;17.920;2024-01-11T12:18:56;101435.00;;;0.90;84.51
79366;BME280;68833;53.160;17.920;2024-01-11T12:21:23;101431.80;;;0.92;84.40
79366;BME280;68833;53.160;17.920;2024-01-11T12:23:51;101434.11;;;0.94;84.68
79366;BME280;68833;53.160;17.920;2024-01-11T12:26:17;101429.99;;;0.95;84.29
79366;BME280;68833;53.160;17.920;2024-01-11T12:28:48;101431.05;;;0.95;84.39
79366;BME280;68833;53.160;17.920;2024-01-11T12:31:16;101427.06;;;0.95;84.56
79366;BME280;68833;53.160;17.920;2024-01-11T12:33:43;101422.59;;;0.96;84.51
79366;BME280;68833;53.160;17.920;2024-01-11T12:36:11;101420.58;;;0.97;84.46
79366;BME280;68833;53.160;17.920;2024-01-11T12:38:46;101418.39;;;0.98;84.57
79366;BME280;68833;53.160;17.920;2024-01-11T12:41:14;101423.73;;;1.02;84.43
79366;BME280;68833;53.160;17.920;2024-01-11T12:43:42;101428.61;;;1.03;84.26
79366;BME280;68833;53.160;17.920;2024-01-11T12:46:09;101432.41;;;1.03;84.44
79366;BME280;68833;53.160;17.920;2024-01-11T12:48:36;101437.23;;;1.02;84.48
79366;BME280;68833;53.160;17.920;2024-01-11T12:51:10;101440.47;;;1.00;84.34
79366;BME280;68833;53.160;17.920;2024-01-11T12:53:37;101439.11;;;1.01;84.46
79366;BME280;68833;53.160;17.920;2024-01-11T12:56:06;101446.79;;;1.03;84.39
79366;BME280;68833;53.160;17.920;2024-01-11T12:58:40;101442.36;;;1.05;84.28
79366;BME280;68833;53.160;17.920;2024-01-11T13:01:08;101437.90;;;1.06;84.03
79366;BME280;68833;53.160;17.920;2024-01-11T13:03:35;101434.67;;;1.07;84.24
79366;BME280;68833;53.160;17.920;2024-01-11T13:06:03;101433.45;;;1.06;84.27
79366;BME280;68833;53.160;17.920;2024-01-11T13:08:33;101435.83;;;1.06;84.33
79366;BME280;68833;53.160;17.920;2024-01-11T13:11:03;101442.36;;;1.05;84.15
79366;BME280;68833;53.160;17.920;2024-01-11T13:13:36;101442.29;;;1.03;84.04
79366;BME280;68833;53.160;17.920;2024-01-11T13:16:04;101446.66;;;1.04;84.29
79366;BME280;68833;53.160;17.920;2024-01-11T13:18:37;101445.14;;;1.05;84.03
79366;BME280;68833;53.160;17.920;2024-01-11T13:21:04;101444.52;;;1.07;84.22
79366;BME280;68833;53.160;17.920;2024-01-11T13:23:33;101447.27;;;1.06;84.11
79366;BME280;68833;53.160;17.920;2024-01-11T13:26:00;101453.48;;;1.06;83.98
79366;BME280;68833;53.160;17.920;2024-01-11T13:28:28;101459.96;;;1.04;84.15
79366;BME280;68833;53.160;17.920;2024-01-11T13:31:00;101461.30;;;1.03;84.23
79366;BME280;68833;53.160;17.920;2024-01-11T13:33:29;101465.96;;;1.03;84.27
79366;BME280;68833;53.160;17.920;2024-01-11T13:35:56;101468.79;;;1.04;83.94
79366;BME280;68833;53.160;17.920;2024-01-11T13:38:23;101464.33;;;1.05;84.19
79366;BME280;68833;53.160;17.920;2024-01-11T13:40:50;101470.84;;;1.07;84.36
79366;BME280;68833;53.160;17.920;2024-01-11T13:43:17;101473.47;;;1.08;84.07